CYEVCYOC

Guest
Details From CYEV - INUVIK MIKE ZUBKO
To CYOC - OLD CROW
Flight Number -
Tags generated
Created
Modified
Stats Distance 151 nm / 280 km
Max Altitude 7,800 ft / 2,377 m
Waypoints 4
Social Downloads 0
Likes 0
Share VATSIM

Download

Looking for another format? Having issues loading an existing format? Contact us
Advertisement - Login to hide

Notes

Basic altitude profile: - Ascent Rate: 2500ft/min - Ascent Speed: 250kts - Cruise Altitude: 35000ft - Cruise Speed: 420kts - Descent Rate: 1500ft/min - Descent Speed: 250kts Options: - Use NATs: yes - Use PACOTS: yes - Use low airways: yes - Use high airways: yes

Route

CYEV EV AR8 YOC CYOC

ID Type Via Altitude Latitude Longitude Leg Dist Tot Dist Heading (true) Name
O CYEV APT - 0 ft / 0 m 68.30379˚ -133.48317˚ - 0 nm - INUVIK MIKE ZUBKO
EV NDB - 900 ft / 274 m 68.32611˚ -133.59278˚ 2 nm 2 nm 299° / 299° INUVIK NDB
YOC NDB AR8 (AWY-LO) 7,800 ft / 2,377 m 67.57111˚ -139.84639˚ 148 nm 150 nm 255° / 249° OLD CROW NDB
O CYOC APT - 0 ft / 0 m 67.56944˚ -139.83944˚ 0 nm 151 nm 122° / 122° OLD CROW

Altitude Profile

Advertisement - Login to hide

CYEV

Details ICAO CYEV (YEV)
Name INUVIK MIKE ZUBKO
Region Canada
Timezone America/Inuvik (UTC-7.0)
Stats Elevation 224 ft / 68 m (AMSL)
Location 68.303792° -133.483167°
Runways 1
Magnetic Variation 21.593° E

METAR

CYEV 181500Z 28002KT 15SM -SN OVC015 M24/M27 A3010 RMK SC8 SLP204

Decode

TAF

TAF AMD TAF AMD CYEV 181409Z 1814/1901 VRB03KT P6SM -SN OVC015 TEMPO 1814/1901 P6SM NSW OVC025 RMK NXT FCST BY 181900Z

Decode

Departure Runways

ID Width Length Bearing (true) Bearing (mag) Surface Threshold Offset Overrun Length
06 150 ft / 46 m 5,982 ft / 1,823 m 85.80° 64.21° Asphalt 0 ft / 0 m 0 ft / 0 m
24 150 ft / 46 m 5,982 ft / 1,823 m 265.84° 244.25° Asphalt 0 ft / 0 m 0 ft / 0 m

CYOC

Details ICAO CYOC (YOC)
Name OLD CROW
Region Canada
Timezone America/Whitehorse (UTC-8.0)
Stats Elevation 824 ft / 251 m (AMSL)
Location 67.569443° -139.839440°
Runways 1
Magnetic Variation 20.340° E

METAR

CYOC 181500Z 25002KT 15SM -SN FEW016 OVC045 M20/M23 A2999 RMK ST1SC7 SLP188

Decode

TAF

Not found

Destination Runways

ID Width Length Bearing (true) Bearing (mag) Surface Threshold Offset Overrun Length
03 100 ft / 30 m 4,970 ft / 1,515 m 60.66° 40.32° Gravel 300 ft / 91 m 0 ft / 0 m
21 100 ft / 30 m 4,970 ft / 1,515 m 240.69° 220.35° Gravel 200 ft / 61 m 0 ft / 0 m